Time;durP1;ratioP1;P1;durP2;ratioP2;P2;SDS_P1;SDS_P2;PMS_P1;PMS_P2;Temp;Humidity;BMP_temperature;BMP_pressure;BME280_temperature;BME280_humidity;BME280_pressure;Samples;Min_cycle;Max_cycle;Signal;HPM_P1;HPM_P2
2022/04/15 00:01:24;;;;;;;19.08;13.13;;;;;;;;;;4892089;29;20130;-76
2022/04/15 00:03:50;;;;;;;21.42;12.63;;;;;;;;;;4904571;29;20048;-75
2022/04/15 00:06:16;;;;;;;20.75;12.65;;;;;;;;;;4912871;29;20052;-75
2022/04/15 00:08:42;;;;;;;20.63;13.27;;;;;;;;;;4915322;29;20036;-75
2022/04/15 00:11:09;;;;;;;17.98;12.38;;;;;;;;;;4896714;29;20036;-75
2022/04/15 00:13:35;;;;;;;21.95;13.80;;;;;;;;;;4892678;29;20045;-74
2022/04/15 00:16:02;;;;;;;20.65;13.32;;;;;;;;;;4894963;29;20742;-75
2022/04/15 00:18:28;;;;;;;18.20;13.15;;;;;;;;;;4894487;29;20519;-75
2022/04/15 00:20:54;;;;;;;21.27;12.75;;;;;;;;;;4898726;29;20142;-74
2022/04/15 00:23:23;;;;;;;21.92;13.40;;;;;;;;;;4899474;29;20036;-75
2022/04/15 00:25:49;;;;;;;20.40;13.68;;;;;;;;;;4896288;29;20407;-76
2022/04/15 00:28:15;;;;;;;18.25;12.80;;;;;;;;;;4896944;29;20108;-75
2022/04/15 00:30:40;;;;;;;18.60;13.15;;;;;;;;;;4895653;29;20108;-75
2022/04/15 00:33:06;;;;;;;21.15;13.07;;;;;;;;;;4894781;29;20499;-76
2022/04/15 00:35:31;;;;;;;19.75;12.90;;;;;;;;;;4898792;29;20447;-74
2022/04/15 00:37:57;;;;;;;18.23;13.90;;;;;;;;;;4894451;29;20073;-74
2022/04/15 00:40:22;;;;;;;20.58;13.70;;;;;;;;;;4897261;29;20072;-74
2022/04/15 00:42:47;;;;;;;20.90;13.38;;;;;;;;;;4896520;29;20037;-72
2022/04/15 00:45:13;;;;;;;19.02;12.68;;;;;;;;;;4892880;29;20104;-74
2022/04/15 00:47:50;;;;;;;21.92;13.18;;;;;;;;;;4895572;29;20032;-74
2022/04/15 00:50:20;;;;;;;19.58;12.43;;;;;;;;;;4894631;29;20064;-75
2022/04/15 00:52:47;;;;;;;24.65;13.57;;;;;;;;;;4895230;29;20123;-74
2022/04/15 00:55:14;;;;;;;16.17;11.48;;;;;;;;;;4894218;29;20080;-74
2022/04/15 00:57:41;;;;;;;22.88;13.48;;;;;;;;;;4896858;29;20479;-75
2022/04/15 01:00:09;;;;;;;16.85;12.40;;;;;;;;;;4897637;29;20594;-76
2022/04/15 01:02:35;;;;;;;19.35;12.55;;;;;;;;;;4896676;29;20037;-77
2022/04/15 01:05:07;;;;;;;18.77;12.43;;;;;;;;;;4898802;29;20044;-74
2022/04/15 01:07:40;;;;;;;18.98;12.23;;;;;;;;;;4892618;29;20112;-76
2022/04/15 01:10:15;;;;;;;18.35;12.45;;;;;;;;;;4890119;29;20059;-76
2022/04/15 01:12:44;;;;;;;19.75;12.10;;;;;;;;;;4894660;29;20045;-76
2022/04/15 01:15:15;;;;;;;18.08;12.25;;;;;;;;;;4895260;29;20044;-78
2022/04/15 01:17:41;;;;;;;22.63;12.43;;;;;;;;;;4897908;29;20115;-76
2022/04/15 01:20:09;;;;;;;19.98;12.50;;;;;;;;;;4897793;29;20044;-74
2022/04/15 01:22:45;;;;;;;18.08;11.60;;;;;;;;;;4892964;29;20048;-75
2022/04/15 01:25:13;;;;;;;17.20;11.85;;;;;;;;;;4894143;29;20056;-75
2022/04/15 01:27:40;;;;;;;19.65;13.07;;;;;;;;;;4895550;29;20053;-76
2022/04/15 01:30:11;;;;;;;17.88;12.40;;;;;;;;;;4896997;29;20060;-76
2022/04/15 01:32:36;;;;;;;15.55;11.13;;;;;;;;;;4895882;29;20093;-68
2022/04/15 01:35:03;;;;;;;20.50;11.70;;;;;;;;;;4896695;29;20024;-75
2022/04/15 01:37:30;;;;;;;17.77;12.27;;;;;;;;;;4893337;29;20072;-75
2022/04/15 01:39:56;;;;;;;15.85;11.15;;;;;;;;;;4895543;29;20057;-76
2022/04/15 01:42:22;;;;;;;18.27;12.13;;;;;;;;;;4895628;29;20108;-75
2022/04/15 01:44:47;;;;;;;17.77;12.68;;;;;;;;;;4896063;29;20475;-75
2022/04/15 01:47:13;;;;;;;16.20;12.57;;;;;;;;;;4894500;29;20096;-75
2022/04/15 01:49:38;;;;;;;22.30;12.05;;;;;;;;;;4892989;29;20053;-76
2022/04/15 01:52:05;;;;;;;18.38;11.77;;;;;;;;;;4892452;29;20120;-75
2022/04/15 01:54:31;;;;;;;20.27;12.23;;;;;;;;;;4895420;29;20057;-75
2022/04/15 01:56:57;;;;;;;19.30;11.20;;;;;;;;;;4894497;29;20067;-76
2022/04/15 01:59:23;;;;;;;20.60;12.10;;;;;;;;;;4894176;29;20033;-75
2022/04/15 02:01:49;;;;;;;15.95;11.30;;;;;;;;;;4892680;29;20060;-74
2022/04/15 02:04:15;;;;;;;16.60;12.15;;;;;;;;;;4895790;29;20427;-76
2022/04/15 02:06:40;;;;;;;16.65;11.65;;;;;;;;;;4891373;29;20055;-75
2022/04/15 02:09:06;;;;;;;17.42;11.57;;;;;;;;;;4893514;29;20048;-76
2022/04/15 02:11:34;;;;;;;20.52;11.77;;;;;;;;;;4894125;29;21427;-72
2022/04/15 02:13:59;;;;;;;15.45;11.35;;;;;;;;;;4892834;29;20096;-72
2022/04/15 02:16:25;;;;;;;19.20;11.75;;;;;;;;;;4891540;29;20056;-75
2022/04/15 02:18:50;;;;;;;15.88;11.05;;;;;;;;;;4892959;29;20502;-74
2022/04/15 02:21:16;;;;;;;17.55;11.48;;;;;;;;;;4895175;29;20045;-74
2022/04/15 02:23:42;;;;;;;17.90;11.98;;;;;;;;;;4892609;29;20050;-75
2022/04/15 02:26:07;;;;;;;19.38;12.27;;;;;;;;;;4891051;29;20029;-75
2022/04/15 02:28:32;;;;;;;15.27;11.45;;;;;;;;;;4898629;29;20143;-75
2022/04/15 02:30:58;;;;;;;18.63;11.73;;;;;;;;;;4893737;29;20081;-75
2022/04/15 02:33:23;;;;;;;23.67;14.25;;;;;;;;;;4889529;29;20062;-74
2022/04/15 02:35:49;;;;;;;23.85;13.57;;;;;;;;;;4895405;29;20040;-74
2022/04/15 02:38:15;;;;;;;21.85;13.60;;;;;;;;;;4893417;29;20029;-74
2022/04/15 02:40:40;;;;;;;25.55;13.65;;;;;;;;;;4893143;29;20044;-76
2022/04/15 02:43:06;;;;;;;26.38;14.73;;;;;;;;;;4891692;29;20056;-75
2022/04/15 02:45:31;;;;;;;22.05;13.07;;;;;;;;;;4894718;29;20503;-74
2022/04/15 02:47:57;;;;;;;19.30;12.50;;;;;;;;;;4890709;29;20144;-75
2022/04/15 02:50:23;;;;;;;18.52;12.52;;;;;;;;;;4895742;29;20040;-75
2022/04/15 02:52:49;;;;;;;18.48;11.93;;;;;;;;;;4893237;29;20052;-74
2022/04/15 02:55:15;;;;;;;16.38;11.73;;;;;;;;;;4892899;29;20095;-74
2022/04/15 02:57:40;;;;;;;17.35;12.15;;;;;;;;;;4891096;29;20509;-74
2022/04/15 03:00:07;;;;;;;17.65;12.48;;;;;;;;;;4896239;29;20087;-74
2022/04/15 03:02:33;;;;;;;20.02;14.13;;;;;;;;;;4894557;29;20029;-74
2022/04/15 03:04:59;;;;;;;25.63;15.73;;;;;;;;;;4893455;29;20040;-73
2022/04/15 03:07:24;;;;;;;28.45;16.10;;;;;;;;;;4891608;29;20049;-73
2022/04/15 03:09:50;;;;;;;30.42;16.65;;;;;;;;;;4892934;29;20522;-76
2022/04/15 03:12:16;;;;;;;29.55;16.33;;;;;;;;;;4891244;29;20041;-75
2022/04/15 03:14:41;;;;;;;33.85;17.00;;;;;;;;;;4892274;29;20064;-75
2022/04/15 03:17:07;;;;;;;29.45;16.73;;;;;;;;;;4892234;29;20035;-76
2022/04/15 03:19:33;;;;;;;25.95;15.88;;;;;;;;;;4910652;29;20044;-75
2022/04/15 03:21:58;;;;;;;25.55;15.90;;;;;;;;;;4913166;29;20040;-76
2022/04/15 03:24:24;;;;;;;26.67;16.63;;;;;;;;;;4904109;29;20139;-75
2022/04/15 03:26:49;;;;;;;24.30;16.02;;;;;;;;;;4893467;29;20051;-76
2022/04/15 03:29:15;;;;;;;26.48;16.35;;;;;;;;;;4895837;29;20139;-75
2022/04/15 03:31:41;;;;;;;24.83;16.52;;;;;;;;;;4911052;29;20048;-75
2022/04/15 03:34:06;;;;;;;28.77;15.73;;;;;;;;;;4899598;29;20124;-75
2022/04/15 03:36:32;;;;;;;26.55;15.05;;;;;;;;;;4894449;29;20491;-74
2022/04/15 03:38:57;;;;;;;23.95;15.85;;;;;;;;;;4896350;29;20182;-74
2022/04/15 03:41:22;;;;;;;27.40;15.30;;;;;;;;;;4913749;29;20032;-76
2022/04/15 03:43:49;;;;;;;30.52;16.65;;;;;;;;;;4910221;29;20040;-75
2022/04/15 03:46:14;;;;;;;27.50;16.08;;;;;;;;;;4900354;29;20052;-76
2022/04/15 03:48:40;;;;;;;24.40;15.45;;;;;;;;;;4901342;29;20403;-75
2022/04/15 03:51:07;;;;;;;26.00;14.85;;;;;;;;;;4913098;29;20048;-75
2022/04/15 03:53:33;;;;;;;24.70;15.38;;;;;;;;;;4913981;29;20036;-75
2022/04/15 03:55:58;;;;;;;23.45;15.20;;;;;;;;;;4913439;29;20108;-75
2022/04/15 03:58:23;;;;;;;25.08;16.02;;;;;;;;;;4910154;29;20048;-75
2022/04/15 04:00:49;;;;;;;22.48;14.55;;;;;;;;;;4910292;29;20076;-75
2022/04/15 04:03:14;;;;;;;23.00;14.48;;;;;;;;;;4905536;29;20063;-76
2022/04/15 04:05:40;;;;;;;22.98;15.52;;;;;;;;;;4894991;29;20040;-74
2022/04/15 04:08:05;;;;;;;23.50;15.23;;;;;;;;;;4914731;29;20038;-75
2022/04/15 04:10:31;;;;;;;23.42;15.20;;;;;;;;;;4913606;29;20048;-76
2022/04/15 04:12:58;;;;;;;25.83;15.18;;;;;;;;;;4904486;29;20499;-75
2022/04/15 04:15:23;;;;;;;25.25;15.27;;;;;;;;;;4891470;29;20045;-74
2022/04/15 04:17:49;;;;;;;22.98;15.35;;;;;;;;;;4891633;29;20040;-76
2022/04/15 04:20:16;;;;;;;26.33;15.63;;;;;;;;;;4893357;29;20036;-75
2022/04/15 04:22:41;;;;;;;27.67;16.05;;;;;;;;;;4890816;29;20071;-75
2022/04/15 04:25:09;;;;;;;24.58;14.95;;;;;;;;;;4889911;29;20494;-75
2022/04/15 04:27:36;;;;;;;27.15;16.17;;;;;;;;;;4892326;29;20136;-76
2022/04/15 04:30:02;;;;;;;24.88;16.05;;;;;;;;;;4890951;29;20556;-75
2022/04/15 04:32:28;;;;;;;27.73;15.95;;;;;;;;;;4890904;29;20388;-75
2022/04/15 04:34:53;;;;;;;23.75;15.20;;;;;;;;;;4890874;29;20096;-75
2022/04/15 04:37:18;;;;;;;22.98;15.32;;;;;;;;;;4889056;29;20397;-75
2022/04/15 04:39:44;;;;;;;30.92;15.38;;;;;;;;;;4889082;29;20040;-75
2022/04/15 04:42:09;;;;;;;25.13;15.30;;;;;;;;;;4893146;29;20057;-74
2022/04/15 04:44:38;;;;;;;26.77;16.13;;;;;;;;;;4888933;29;20047;-75
2022/04/15 04:47:05;;;;;;;29.55;17.25;;;;;;;;;;4910062;29;20508;-74
2022/04/15 04:49:30;;;;;;;27.23;15.70;;;;;;;;;;4913012;29;20100;-75
2022/04/15 04:51:56;;;;;;;28.58;15.98;;;;;;;;;;4916782;29;20406;-74
2022/04/15 04:54:21;;;;;;;25.60;16.45;;;;;;;;;;4912862;29;20048;-74
2022/04/15 04:56:47;;;;;;;24.90;16.33;;;;;;;;;;4915169;29;20036;-68
2022/04/15 04:59:12;;;;;;;25.15;15.43;;;;;;;;;;4915468;29;20040;-60
2022/04/15 05:01:37;;;;;;;26.20;15.57;;;;;;;;;;4913784;29;20049;-60
2022/04/15 05:04:03;;;;;;;26.95;15.68;;;;;;;;;;4915379;29;20044;-61
2022/04/15 05:06:28;;;;;;;25.88;14.48;;;;;;;;;;4915728;29;20135;-61
2022/04/15 05:08:54;;;;;;;26.52;15.20;;;;;;;;;;4913844;29;20471;-62
2022/04/15 05:11:19;;;;;;;22.67;14.88;;;;;;;;;;4911837;29;20029;-64
2022/04/15 05:13:44;;;;;;;24.00;14.88;;;;;;;;;;4916750;29;20052;-61
2022/04/15 05:16:10;;;;;;;22.75;14.57;;;;;;;;;;4908393;29;20092;-62
2022/04/15 05:18:35;;;;;;;23.35;15.13;;;;;;;;;;4911699;29;20052;-64
2022/04/15 05:21:01;;;;;;;22.40;15.30;;;;;;;;;;4916942;29;20048;-62
2022/04/15 05:23:26;;;;;;;22.45;15.52;;;;;;;;;;4912135;29;20047;-61
2022/04/15 05:25:52;;;;;;;23.42;14.48;;;;;;;;;;4910163;29;20080;-61
2022/04/15 05:28:18;;;;;;;21.88;14.63;;;;;;;;;;4901187;29;20049;-61
2022/04/15 05:30:43;;;;;;;25.25;15.27;;;;;;;;;;4894592;29;20157;-60
2022/04/15 05:33:09;;;;;;;28.48;16.60;;;;;;;;;;4895125;29;20488;-60
2022/04/15 05:35:34;;;;;;;23.55;16.10;;;;;;;;;;4895680;29;20028;-60
2022/04/15 05:37:59;;;;;;;23.75;15.27;;;;;;;;;;4892829;29;20048;-61
2022/04/15 05:40:27;;;;;;;21.38;14.45;;;;;;;;;;4890575;29;20365;-61
2022/04/15 05:42:53;;;;;;;23.73;14.85;;;;;;;;;;4895818;29;20123;-61
2022/04/15 05:45:18;;;;;;;24.67;15.23;;;;;;;;;;4891875;29;20144;-60
2022/04/15 05:47:44;;;;;;;21.20;14.43;;;;;;;;;;4894198;29;20432;-60
2022/04/15 05:50:09;;;;;;;21.50;14.65;;;;;;;;;;4893719;29;20036;-59
2022/04/15 05:52:35;;;;;;;22.42;15.13;;;;;;;;;;4895206;29;20447;-60
2022/04/15 05:55:01;;;;;;;19.30;14.13;;;;;;;;;;4894017;29;20051;-59
2022/04/15 05:57:26;;;;;;;21.13;15.10;;;;;;;;;;4894859;29;20052;-60
2022/04/15 05:59:51;;;;;;;20.48;14.82;;;;;;;;;;4896679;29;20092;-61
2022/04/15 06:02:17;;;;;;;19.92;13.80;;;;;;;;;;4891787;29;20041;-62
2022/04/15 06:04:42;;;;;;;20.10;13.70;;;;;;;;;;4894952;29;20063;-61
2022/04/15 06:07:08;;;;;;;20.25;14.55;;;;;;;;;;4908142;29;20047;-61
2022/04/15 06:09:34;;;;;;;21.40;14.32;;;;;;;;;;4906413;29;20048;-60
2022/04/15 06:12:00;;;;;;;19.27;14.13;;;;;;;;;;4894356;29;20055;-61
2022/04/15 06:14:25;;;;;;;20.73;13.32;;;;;;;;;;4896726;29;20036;-62
2022/04/15 06:16:52;;;;;;;17.50;14.32;;;;;;;;;;4914548;29;20044;-61
2022/04/15 06:19:17;;;;;;;20.58;14.55;;;;;;;;;;4900682;29;20076;-61
2022/04/15 06:21:43;;;;;;;20.30;14.10;;;;;;;;;;4896516;29;20075;-61
2022/04/15 06:24:08;;;;;;;19.65;13.18;;;;;;;;;;4900637;29;20040;-59
2022/04/15 06:26:35;;;;;;;20.90;13.30;;;;;;;;;;4912682;29;20119;-60
2022/04/15 06:29:00;;;;;;;22.63;14.38;;;;;;;;;;4896472;29;20056;-61
2022/04/15 06:31:26;;;;;;;19.60;14.00;;;;;;;;;;4895724;29;20549;-61
2022/04/15 06:33:52;;;;;;;22.63;14.90;;;;;;;;;;4895390;29;20051;-62
2022/04/15 06:36:19;;;;;;;20.80;15.30;;;;;;;;;;4899676;29;20052;-62
2022/04/15 06:38:44;;;;;;;19.10;13.40;;;;;;;;;;4908843;29;20091;-61
2022/04/15 06:41:09;;;;;;;20.33;14.50;;;;;;;;;;4891145;29;20120;-61
2022/04/15 06:43:35;;;;;;;20.17;14.90;;;;;;;;;;4890704;29;20052;-60
2022/04/15 06:46:02;;;;;;;25.98;14.88;;;;;;;;;;4892265;29;20040;-61
2022/04/15 06:48:27;;;;;;;21.67;14.15;;;;;;;;;;4892628;29;20504;-61
2022/04/15 06:50:54;;;;;;;19.80;13.82;;;;;;;;;;4897540;29;20041;-60
2022/04/15 06:53:23;;;;;;;16.05;13.20;;;;;;;;;;4913610;29;20105;-61
2022/04/15 06:55:49;;;;;;;17.58;11.48;;;;;;;;;;4897882;29;20492;-59
2022/04/15 06:58:14;;;;;;;17.13;11.50;;;;;;;;;;4908596;29;20130;-61
2022/04/15 07:00:41;;;;;;;17.38;12.38;;;;;;;;;;4915053;29;20043;-61
2022/04/15 07:03:08;;;;;;;15.77;11.82;;;;;;;;;;4909224;29;20496;-61
2022/04/15 07:05:33;;;;;;;17.10;11.48;;;;;;;;;;4896008;29;20041;-61
2022/04/15 07:07:58;;;;;;;16.25;11.73;;;;;;;;;;4909883;29;20052;-61
2022/04/15 07:10:24;;;;;;;16.77;12.23;;;;;;;;;;4910126;29;20185;-61
2022/04/15 07:12:49;;;;;;;16.27;11.48;;;;;;;;;;4901902;29;20044;-61
2022/04/15 07:15:14;;;;;;;18.35;10.95;;;;;;;;;;4900342;29;20054;-61
2022/04/15 07:17:40;;;;;;;12.38;9.95;;;;;;;;;;4914006;28;20043;-62
2022/04/15 07:20:06;;;;;;;15.93;10.20;;;;;;;;;;4911080;29;20487;-61
2022/04/15 07:22:32;;;;;;;12.98;9.52;;;;;;;;;;4897103;29;20084;-61
2022/04/15 07:24:57;;;;;;;16.77;10.70;;;;;;;;;;4905590;29;20068;-61
2022/04/15 07:27:22;;;;;;;16.42;10.18;;;;;;;;;;4904094;29;20052;-61
2022/04/15 07:29:48;;;;;;;18.05;11.13;;;;;;;;;;4897242;29;20559;-61
2022/04/15 07:32:21;;;;;;;15.57;10.40;;;;;;;;;;4895281;29;20032;-60
2022/04/15 07:34:46;;;;;;;16.20;11.45;;;;;;;;;;4891564;29;20048;-60
2022/04/15 07:37:11;;;;;;;14.85;10.48;;;;;;;;;;4892084;29;20045;-61
2022/04/15 07:39:38;;;;;;;16.02;8.55;;;;;;;;;;4890738;29;20138;-62
2022/04/15 07:42:03;;;;;;;5.85;3.60;;;;;;;;;;4891615;29;20143;-61
2022/04/15 07:44:30;;;;;;;4.93;3.20;;;;;;;;;;4894015;29;20185;-61
2022/04/15 07:46:55;;;;;;;6.20;3.50;;;;;;;;;;4912753;29;20384;-61
2022/04/15 07:49:20;;;;;;;5.25;3.20;;;;;;;;;;4906673;29;20095;-62
2022/04/15 07:51:46;;;;;;;7.63;3.00;;;;;;;;;;4907699;29;20051;-62
2022/04/15 07:54:12;;;;;;;5.53;2.78;;;;;;;;;;4908140;29;20056;-61
2022/04/15 07:56:37;;;;;;;3.95;2.53;;;;;;;;;;4912585;29;20042;-62
2022/04/15 07:59:03;;;;;;;5.03;2.30;;;;;;;;;;4913286;29;20040;-61
2022/04/15 08:01:29;;;;;;;5.20;2.08;;;;;;;;;;4914291;29;20473;-60
2022/04/15 08:03:56;;;;;;;4.90;2.33;;;;;;;;;;4897160;29;20157;-61
2022/04/15 08:06:23;;;;;;;4.03;2.20;;;;;;;;;;4889078;29;20055;-61
2022/04/15 08:08:50;;;;;;;5.40;1.98;;;;;;;;;;4891656;29;20068;-62
2022/04/15 08:11:16;;;;;;;3.25;1.70;;;;;;;;;;4887875;29;20367;-61
2022/04/15 08:13:41;;;;;;;2.88;1.67;;;;;;;;;;4892325;29;20152;-60
2022/04/15 08:16:08;;;;;;;3.53;1.50;;;;;;;;;;4890567;29;20554;-61
2022/04/15 08:18:34;;;;;;;4.22;1.50;;;;;;;;;;4891556;29;20558;-62
2022/04/15 08:21:00;;;;;;;3.58;1.52;;;;;;;;;;4890034;29;20049;-61
2022/04/15 08:23:26;;;;;;;4.35;1.33;;;;;;;;;;4891985;29;20044;-61
2022/04/15 08:25:51;;;;;;;2.53;1.00;;;;;;;;;;4893134;29;20053;-61
2022/04/15 08:28:17;;;;;;;2.15;0.95;;;;;;;;;;4897274;29;20697;-62
2022/04/15 08:30:42;;;;;;;3.20;1.60;;;;;;;;;;4895702;29;20048;-62
2022/04/15 08:33:08;;;;;;;0.88;0.50;;;;;;;;;;4897068;29;20056;-61
2022/04/15 08:35:34;;;;;;;1.33;0.57;;;;;;;;;;4891757;29;20085;-62
2022/04/15 08:38:00;;;;;;;0.68;0.50;;;;;;;;;;4896552;29;20044;-62
2022/04/15 08:40:31;;;;;;;2.17;1.00;;;;;;;;;;4893010;29;20041;-61
2022/04/15 08:42:57;;;;;;;3.53;0.93;;;;;;;;;;4897243;29;20531;-62
2022/04/15 08:45:25;;;;;;;1.40;0.70;;;;;;;;;;4889264;29;20048;-60
2022/04/15 08:47:52;;;;;;;1.40;0.60;;;;;;;;;;4897608;29;20063;-62
2022/04/15 08:50:18;;;;;;;1.90;0.57;;;;;;;;;;4895798;29;20044;-61
2022/04/15 08:52:45;;;;;;;1.52;0.60;;;;;;;;;;4898955;29;20052;-61
2022/04/15 08:55:11;;;;;;;2.47;0.93;;;;;;;;;;4898035;29;20045;-61
2022/04/15 08:57:37;;;;;;;2.28;0.80;;;;;;;;;;4895242;29;20049;-63
2022/04/15 09:00:05;;;;;;;2.60;0.68;;;;;;;;;;4894184;29;20053;-61
2022/04/15 09:02:35;;;;;;;1.23;0.50;;;;;;;;;;4895349;29;20345;-61
2022/04/15 09:05:01;;;;;;;1.25;0.43;;;;;;;;;;4894056;29;20055;-61
2022/04/15 09:07:28;;;;;;;2.05;0.43;;;;;;;;;;4893678;29;20152;-61
2022/04/15 09:09:56;;;;;;;1.30;0.40;;;;;;;;;;4892090;29;20048;-62
2022/04/15 09:12:26;;;;;;;1.10;0.50;;;;;;;;;;4897181;29;20040;-61
2022/04/15 09:14:57;;;;;;;2.20;0.60;;;;;;;;;;4892126;29;20036;-63
2022/04/15 09:17:23;;;;;;;0.52;0.30;;;;;;;;;;4897439;29;20055;-60
2022/04/15 09:19:52;;;;;;;2.33;0.60;;;;;;;;;;4897088;29;20040;-64
2022/04/15 09:22:18;;;;;;;1.10;0.52;;;;;;;;;;4892817;29;20053;-63
2022/04/15 09:24:45;;;;;;;0.60;0.30;;;;;;;;;;4894289;29;20123;-62
2022/04/15 09:27:11;;;;;;;0.60;0.40;;;;;;;;;;4894514;29;20127;-62
2022/04/15 09:29:40;;;;;;;1.67;0.40;;;;;;;;;;4896820;29;20559;-62
2022/04/15 09:32:14;;;;;;;1.20;0.60;;;;;;;;;;4897688;29;20048;-60
2022/04/15 09:35:03;;;;;;;2.63;0.55;;;;;;;;;;4893238;29;20036;-63
2022/04/15 09:37:34;;;;;;;1.40;0.52;;;;;;;;;;4892639;29;20057;-61
2022/04/15 09:40:18;;;;;;;2.08;0.70;;;;;;;;;;4896133;29;20052;-61
2022/04/15 09:42:53;;;;;;;1.15;0.60;;;;;;;;;;4893440;29;20049;-60
2022/04/15 09:45:20;;;;;;;0.95;0.70;;;;;;;;;;4896153;29;20407;-61
2022/04/15 09:47:51;;;;;;;0.68;0.65;;;;;;;;;;4896666;29;20492;-60
2022/04/15 09:50:30;;;;;;;2.85;0.70;;;;;;;;;;4896099;29;20063;-62
2022/04/15 09:53:15;;;;;;;1.38;0.60;;;;;;;;;;4893335;29;20048;-59
2022/04/15 09:55:43;;;;;;;1.15;0.60;;;;;;;;;;4895150;29;20577;-62
2022/04/15 09:58:10;;;;;;;2.53;0.68;;;;;;;;;;4892451;29;20113;-61
2022/04/15 10:00:39;;;;;;;5.20;0.90;;;;;;;;;;4895919;29;20045;-62
2022/04/15 10:03:07;;;;;;;2.13;0.80;;;;;;;;;;4895199;29;20136;-61
2022/04/15 10:05:34;;;;;;;1.20;0.60;;;;;;;;;;4893211;29;20479;-60
2022/04/15 10:08:01;;;;;;;1.38;0.52;;;;;;;;;;4893327;29;20104;-61
2022/04/15 10:10:28;;;;;;;3.30;0.57;;;;;;;;;;4894379;29;20509;-63
2022/04/15 10:12:55;;;;;;;2.83;0.80;;;;;;;;;;4891801;29;20495;-61
2022/04/15 10:15:21;;;;;;;2.03;0.77;;;;;;;;;;4894436;29;20045;-61
2022/04/15 10:17:46;;;;;;;0.77;0.57;;;;;;;;;;4891455;29;20111;-61
2022/04/15 10:20:12;;;;;;;2.00;0.88;;;;;;;;;;4892372;29;20491;-60
2022/04/15 10:22:39;;;;;;;2.65;0.80;;;;;;;;;;4895128;29;20096;-60
2022/04/15 10:25:06;;;;;;;2.50;1.00;;;;;;;;;;4894504;29;20056;-62
2022/04/15 10:27:32;;;;;;;0.77;0.70;;;;;;;;;;4891857;29;20045;-62
2022/04/15 10:30:20;;;;;;;1.25;0.63;;;;;;;;;;4894919;29;20428;-61
2022/04/15 10:32:55;;;;;;;2.65;0.70;;;;;;;;;;4893418;29;20035;-61
2022/04/15 10:35:29;;;;;;;1.98;0.68;;;;;;;;;;4889482;29;20037;-61
2022/04/15 10:38:09;;;;;;;3.13;0.60;;;;;;;;;;4894794;29;20510;-61
2022/04/15 10:40:35;;;;;;;1.92;0.82;;;;;;;;;;4891207;29;20503;-61
2022/04/15 10:43:23;;;;;;;2.92;0.70;;;;;;;;;;4891970;29;20411;-61
2022/04/15 10:45:51;;;;;;;3.30;1.10;;;;;;;;;;4900764;29;20499;-62
2022/04/15 10:48:29;;;;;;;0.90;0.65;;;;;;;;;;4910719;29;20116;-61
2022/04/15 10:50:54;;;;;;;0.93;0.50;;;;;;;;;;4894445;29;20432;-62
2022/04/15 10:53:33;;;;;;;1.20;0.70;;;;;;;;;;4894056;29;20123;-62
2022/04/15 10:56:09;;;;;;;3.42;0.90;;;;;;;;;;4909733;29;20047;-62
2022/04/15 11:01:36;;;;;;;1.70;1.05;;;;;;;;;;4881681;29;20052;-61
2022/04/15 11:04:04;;;;;;;3.35;0.88;;;;;;;;;;4905410;29;20055;-61
2022/04/15 11:06:30;;;;;;;1.75;0.60;;;;;;;;;;4906134;29;20041;-60
2022/04/15 11:08:55;;;;;;;1.98;0.85;;;;;;;;;;4895175;29;20036;-61
2022/04/15 11:11:36;;;;;;;1.65;0.70;;;;;;;;;;4896633;29;20088;-62
2022/04/15 11:14:08;;;;;;;1.90;0.70;;;;;;;;;;4913062;29;20052;-60
2022/04/15 11:16:50;;;;;;;1.17;0.70;;;;;;;;;;4899800;29;20057;-61
2022/04/15 11:19:18;;;;;;;3.80;1.13;;;;;;;;;;4892439;29;20040;-61
2022/04/15 11:21:49;;;;;;;3.15;1.00;;;;;;;;;;4901179;29;20055;-61
2022/04/15 11:24:22;;;;;;;1.50;0.90;;;;;;;;;;4912118;29;20546;-62
2022/04/15 11:26:47;;;;;;;2.05;0.88;;;;;;;;;;4912859;29;20082;-65
2022/04/15 11:29:14;;;;;;;3.05;0.90;;;;;;;;;;4913551;29;20436;-61
2022/04/15 11:31:45;;;;;;;2.22;0.80;;;;;;;;;;4911244;29;20420;-64
2022/04/15 11:34:15;;;;;;;2.50;0.80;;;;;;;;;;4908952;29;20398;-61
2022/04/15 11:36:44;;;;;;;1.35;0.80;;;;;;;;;;4908862;29;20574;-61
2022/04/15 11:39:16;;;;;;;1.90;0.85;;;;;;;;;;4909787;29;20480;-62
2022/04/15 11:41:46;;;;;;;1.50;0.80;;;;;;;;;;4890245;29;20044;-61
2022/04/15 11:44:13;;;;;;;2.47;1.00;;;;;;;;;;4892243;29;20068;-62
2022/04/15 11:46:40;;;;;;;2.22;0.80;;;;;;;;;;4890802;29;20051;-62
2022/04/15 11:49:26;;;;;;;2.33;0.80;;;;;;;;;;4892375;29;20100;-61
2022/04/15 11:51:56;;;;;;;2.03;0.80;;;;;;;;;;4887680;29;20049;-62
2022/04/15 11:54:23;;;;;;;2.33;1.00;;;;;;;;;;4889880;29;20053;-62
2022/04/15 11:56:54;;;;;;;1.77;0.70;;;;;;;;;;4892178;29;20044;-61
2022/04/15 11:59:20;;;;;;;2.20;1.00;;;;;;;;;;4889563;29;20040;-65
2022/04/15 12:01:45;;;;;;;1.75;1.10;;;;;;;;;;4893558;29;20048;-63
2022/04/15 12:04:12;;;;;;;2.72;0.80;;;;;;;;;;4895839;29;20058;-62
2022/04/15 12:06:40;;;;;;;2.47;0.57;;;;;;;;;;4893163;29;20048;-62
2022/04/15 12:09:14;;;;;;;1.05;0.60;;;;;;;;;;4899127;29;20044;-62
2022/04/15 12:11:40;;;;;;;2.83;0.80;;;;;;;;;;4894911;29;20028;-62
2022/04/15 12:14:07;;;;;;;1.00;0.70;;;;;;;;;;4895531;29;20040;-61
2022/04/15 12:16:36;;;;;;;2.92;0.73;;;;;;;;;;4895282;29;20063;-62
2022/04/15 12:19:02;;;;;;;1.85;0.75;;;;;;;;;;4897878;29;20084;-61
2022/04/15 12:21:29;;;;;;;1.13;0.57;;;;;;;;;;4897337;29;20040;-62
2022/04/15 12:24:22;;;;;;;2.17;0.90;;;;;;;;;;4892341;29;20097;-62
2022/04/15 12:26:48;;;;;;;;;;;;;;;;;;4892809;29;20083;-59
2022/04/15 12:32:24;;;;;;;2.45;0.88;;;;;;;;;;4891977;29;20099;-61
2022/04/15 12:34:59;;;;;;;1.38;0.85;;;;;;;;;;4896289;29;20502;-61
2022/04/15 12:37:44;;;;;;;1.92;0.80;;;;;;;;;;4898007;29;20051;-61
2022/04/15 12:40:30;;;;;;;2.83;0.73;;;;;;;;;;4892991;29;20079;-61
2022/04/15 12:43:06;;;;;;;1.58;1.00;;;;;;;;;;4899705;29;20076;-61
2022/04/15 12:45:32;;;;;;;2.40;0.70;;;;;;;;;;4894789;29;20048;-61
2022/04/15 12:48:02;;;;;;;2.08;0.75;;;;;;;;;;4893012;29;20112;-60
2022/04/15 12:50:31;;;;;;;2.88;1.00;;;;;;;;;;4895785;29;20049;-61
2022/04/15 12:52:57;;;;;;;1.27;0.75;;;;;;;;;;4895271;29;20060;-60
2022/04/15 12:55:35;;;;;;;3.13;0.70;;;;;;;;;;4894170;29;20051;-61
2022/04/15 12:58:13;;;;;;;1.15;0.70;;;;;;;;;;4893628;29;20057;-60
2022/04/15 13:00:39;;;;;;;0.77;0.63;;;;;;;;;;4892845;29;20112;-60
2022/04/15 13:03:04;;;;;;;1.63;0.80;;;;;;;;;;4897734;29;20052;-60
2022/04/15 13:05:30;;;;;;;1.90;0.75;;;;;;;;;;4895464;29;20033;-60
2022/04/15 13:07:55;;;;;;;1.58;0.60;;;;;;;;;;4898037;29;20505;-59
2022/04/15 13:10:24;;;;;;;1.63;0.93;;;;;;;;;;4888844;29;20147;-61
2022/04/15 13:12:49;;;;;;;2.15;1.00;;;;;;;;;;4896295;29;20055;-60
2022/04/15 13:15:15;;;;;;;1.75;0.75;;;;;;;;;;4889975;29;20045;-60
2022/04/15 13:17:41;;;;;;;1.63;0.80;;;;;;;;;;4893749;29;20061;-61
2022/04/15 13:20:09;;;;;;;4.00;0.93;;;;;;;;;;4893444;29;20040;-61
2022/04/15 13:22:35;;;;;;;2.40;0.77;;;;;;;;;;4894532;29;20132;-61
2022/04/15 13:25:01;;;;;;;5.45;1.10;;;;;;;;;;4894239;29;20040;-61
2022/04/15 13:27:26;;;;;;;4.45;1.10;;;;;;;;;;4893887;29;20189;-61
2022/04/15 13:29:54;;;;;;;2.70;1.10;;;;;;;;;;4897208;29;20111;-61
2022/04/15 13:32:19;;;;;;;6.60;1.00;;;;;;;;;;4912985;29;20140;-60
2022/04/15 13:34:45;;;;;;;1.55;0.80;;;;;;;;;;4913245;29;20044;-61
2022/04/15 13:37:10;;;;;;;2.13;0.90;;;;;;;;;;4911057;29;20055;-60
2022/04/15 13:39:36;;;;;;;2.85;1.30;;;;;;;;;;4912475;29;20080;-60
2022/04/15 13:42:03;;;;;;;4.13;1.40;;;;;;;;;;4915712;29;20063;-60
2022/04/15 13:44:29;;;;;;;3.05;1.67;;;;;;;;;;4914792;29;20131;-60
2022/04/15 13:46:54;;;;;;;2.60;1.35;;;;;;;;;;4911569;29;20080;-60
2022/04/15 13:49:20;;;;;;;2.13;1.10;;;;;;;;;;4911446;29;20143;-61
2022/04/15 13:51:46;;;;;;;2.65;1.00;;;;;;;;;;4912756;29;20131;-61
2022/04/15 13:56:55;;;;;;;5.38;1.33;;;;;;;;;;4909879;29;20043;-61
2022/04/15 13:59:21;;;;;;;3.28;1.52;;;;;;;;;;4913442;29;20040;-60
2022/04/15 14:01:46;;;;;;;2.60;1.60;;;;;;;;;;4912135;29;20225;-61
2022/04/15 14:04:16;;;;;;;3.58;1.40;;;;;;;;;;4911666;29;20154;-60
2022/04/15 14:06:45;;;;;;;2.63;1.42;;;;;;;;;;4911652;29;20056;-60
2022/04/15 14:09:13;;;;;;;2.53;1.38;;;;;;;;;;4910882;29;20051;-60
2022/04/15 14:11:44;;;;;;;2.90;1.50;;;;;;;;;;4910073;29;20448;-62
2022/04/15 14:14:13;;;;;;;5.13;1.02;;;;;;;;;;4910213;29;20032;-61
2022/04/15 14:16:39;;;;;;;2.97;1.33;;;;;;;;;;4912911;29;20040;-61
2022/04/15 14:19:05;;;;;;;4.32;1.45;;;;;;;;;;4910612;29;20088;-61
2022/04/15 14:21:32;;;;;;;3.60;1.30;;;;;;;;;;4909969;29;20044;-61
2022/04/15 14:23:58;;;;;;;2.22;1.20;;;;;;;;;;4913792;29;20044;-61
2022/04/15 14:26:24;;;;;;;1.75;1.35;;;;;;;;;;4908602;29;20036;-60
2022/04/15 14:28:49;;;;;;;2.35;1.10;;;;;;;;;;4912337;29;20048;-60
2022/04/15 14:31:15;;;;;;;2.20;1.40;;;;;;;;;;4909286;29;20071;-62
2022/04/15 14:33:41;;;;;;;2.75;1.38;;;;;;;;;;4913007;29;20056;-66
2022/04/15 14:36:07;;;;;;;2.38;1.20;;;;;;;;;;4911828;29;20056;-64
2022/04/15 14:38:34;;;;;;;4.85;1.25;;;;;;;;;;4910923;29;20028;-61